Terminal Aerodrome Forecast
Issued by NWS Twin Cities, MN

Home | Current Version | Previous Version | Text Only | Print | Product List | Glossary Off
Versions: 1 2 3 4 5 6 7 8 9 10 11 12 13 14 15 16 17 18 19

000
FTUS43 KMPX 151120
TAFEAU
TAF
KEAU 151120Z 1512/1612 34014G22KT P6SM SCT015 BKN025 BKN050
      TEMPO 1512/1515 -RA BKN015
     FM151500 32011KT P6SM BKN030
     FM151800 30009KT P6SM BKN040
     FM152000 29010KT P6SM SCT045
     FM160100 VRB03KT P6SM BKN100=

USA.gov is the U.S. government's official web portal to all federal, state and local government web resources and services.